sensor_id;sensor_type;location;lat;lon;timestamp;pressure;altitude;pressure_sealevel;temperature;humidity
3960;BME280;1994;48.640;8.894;2022-07-29T00:02:28;96021.13;;;20.02;86.92
3960;BME280;1994;48.640;8.894;2022-07-29T00:04:54;96021.84;;;19.94;87.48
3960;BME280;1994;48.640;8.894;2022-07-29T00:07:20;96014.53;;;19.77;88.56
3960;BME280;1994;48.640;8.894;2022-07-29T00:09:45;96016.38;;;19.77;88.95
3960;BME280;1994;48.640;8.894;2022-07-29T00:12:11;96013.88;;;19.72;89.34
3960;BME280;1994;48.640;8.894;2022-07-29T00:14:37;96008.81;;;19.62;90.26
3960;BME280;1994;48.640;8.894;2022-07-29T00:17:03;96007.44;;;19.51;90.88
3960;BME280;1994;48.640;8.894;2022-07-29T00:19:29;96008.22;;;19.51;91.04
3960;BME280;1994;48.640;8.894;2022-07-29T00:21:55;96017.16;;;19.50;91.59
3960;BME280;1994;48.640;8.894;2022-07-29T00:24:20;96015.53;;;19.54;91.06
3960;BME280;1994;48.640;8.894;2022-07-29T00:26:49;96017.06;;;19.42;92.00
3960;BME280;1994;48.640;8.894;2022-07-29T00:29:15;96016.97;;;19.33;92.49
3960;BME280;1994;48.640;8.894;2022-07-29T00:31:43;96011.13;;;19.36;92.37
3960;BME280;1994;48.640;8.894;2022-07-29T00:34:09;96005.09;;;19.36;92.77
3960;BME280;1994;48.640;8.894;2022-07-29T00:36:55;96000.91;;;19.35;93.24
3960;BME280;1994;48.640;8.894;2022-07-29T00:39:30;96010.34;;;19.36;92.93
3960;BME280;1994;48.640;8.894;2022-07-29T00:41:56;96006.47;;;19.33;92.66
3960;BME280;1994;48.640;8.894;2022-07-29T00:44:25;96000.41;;;19.33;92.60
3960;BME280;1994;48.640;8.894;2022-07-29T00:46:51;95993.59;;;19.32;92.76
3960;BME280;1994;48.640;8.894;2022-07-29T00:49:17;95988.34;;;19.32;93.05
3960;BME280;1994;48.640;8.894;2022-07-29T00:51:43;95988.16;;;19.28;93.36
3960;BME280;1994;48.640;8.894;2022-07-29T00:54:09;95990.50;;;19.30;93.36
3960;BME280;1994;48.640;8.894;2022-07-29T00:56:34;95993.59;;;19.32;93.24
3960;BME280;1994;48.640;8.894;2022-07-29T00:59:00;95996.53;;;19.30;93.15
3960;BME280;1994;48.640;8.894;2022-07-29T01:01:26;95988.34;;;19.32;92.87
3960;BME280;1994;48.640;8.894;2022-07-29T01:03:53;95985.16;;;19.35;92.70
3960;BME280;1994;48.640;8.894;2022-07-29T01:06:19;95987.88;;;19.30;93.03
3960;BME280;1994;48.640;8.894;2022-07-29T01:08:47;95982.13;;;19.28;93.25
3960;BME280;1994;48.640;8.894;2022-07-29T01:11:17;95976.38;;;19.26;93.67
3960;BME280;1994;48.640;8.894;2022-07-29T01:13:44;95975.69;;;19.20;93.93
3960;BME280;1994;48.640;8.894;2022-07-29T01:16:22;95974.34;;;19.23;93.56
3960;BME280;1994;48.640;8.894;2022-07-29T01:18:53;95970.22;;;19.17;94.13
3960;BME280;1994;48.640;8.894;2022-07-29T01:30:32;95969.75;;;19.15;94.60
3960;BME280;1994;48.640;8.894;2022-07-29T01:33:06;95971.28;;;19.16;94.11
3960;BME280;1994;48.640;8.894;2022-07-29T01:35:40;95964.75;;;19.13;94.72
3960;BME280;1994;48.640;8.894;2022-07-29T01:38:12;95973.91;;;19.16;94.95
3960;BME280;1994;48.640;8.894;2022-07-29T01:40:53;95966.97;;;19.25;94.65
3960;BME280;1994;48.640;8.894;2022-07-29T01:46:17;95964.34;;;19.25;94.21
3960;BME280;1994;48.640;8.894;2022-07-29T01:48:57;95958.19;;;19.29;94.53
3960;BME280;1994;48.640;8.894;2022-07-29T01:51:33;95959.38;;;19.37;93.96
3960;BME280;1994;48.640;8.894;2022-07-29T01:56:31;95955.47;;;19.48;93.53
3960;BME280;1994;48.640;8.894;2022-07-29T01:59:05;95961.09;;;19.55;93.05
3960;BME280;1994;48.640;8.894;2022-07-29T02:01:33;95965.22;;;19.61;92.78
3960;BME280;1994;48.640;8.894;2022-07-29T02:04:03;95958.19;;;19.56;92.16
3960;BME280;1994;48.640;8.894;2022-07-29T02:06:32;95958.00;;;19.53;92.51
3960;BME280;1994;48.640;8.894;2022-07-29T02:08:59;95958.00;;;19.53;92.37
3960;BME280;1994;48.640;8.894;2022-07-29T02:11:27;95955.09;;;19.54;92.49
3960;BME280;1994;48.640;8.894;2022-07-29T02:13:57;95950.59;;;19.55;92.34
3960;BME280;1994;48.640;8.894;2022-07-29T02:16:26;95953.13;;;19.60;91.87
3960;BME280;1994;48.640;8.894;2022-07-29T02:18:54;95958.38;;;19.60;91.75
3960;BME280;1994;48.640;8.894;2022-07-29T02:21:24;95961.34;;;19.45;92.09
3960;BME280;1994;48.640;8.894;2022-07-29T02:23:52;95962.47;;;19.39;92.25
3960;BME280;1994;48.640;8.894;2022-07-29T02:26:23;95956.25;;;19.35;92.01
3960;BME280;1994;48.640;8.894;2022-07-29T02:28:53;95952.34;;;19.19;93.45
3960;BME280;1994;48.640;8.894;2022-07-29T02:31:27;95958.66;;;19.18;93.51
3960;BME280;1994;48.640;8.894;2022-07-29T02:33:57;95959.72;;;19.17;93.25
3960;BME280;1994;48.640;8.894;2022-07-29T02:36:25;95960.16;;;19.24;93.48
3960;BME280;1994;48.640;8.894;2022-07-29T02:38:52;95958.00;;;19.26;93.11
3960;BME280;1994;48.640;8.894;2022-07-29T02:42:03;95961.75;;;19.20;93.69
3960;BME280;1994;48.640;8.894;2022-07-29T02:44:29;95955.25;;;19.17;93.52
3960;BME280;1994;48.640;8.894;2022-07-29T02:47:18;95946.28;;;19.05;92.96
3960;BME280;1994;48.640;8.894;2022-07-29T02:50:17;95943.75;;;19.00;92.35
3960;BME280;1994;48.640;8.894;2022-07-29T02:53:00;95945.09;;;18.97;92.03
3960;BME280;1994;48.640;8.894;2022-07-29T02:58:38;95945.41;;;18.96;91.56
3960;BME280;1994;48.640;8.894;2022-07-29T03:01:20;95943.34;;;18.93;91.03
3960;BME280;1994;48.640;8.894;2022-07-29T03:03:50;95945.31;;;19.01;90.91
3960;BME280;1994;48.640;8.894;2022-07-29T03:06:19;95939.25;;;18.87;90.30
3960;BME280;1994;48.640;8.894;2022-07-29T03:08:46;95946.16;;;18.83;89.51
3960;BME280;1994;48.640;8.894;2022-07-29T03:11:12;95943.13;;;18.76;89.36
3960;BME280;1994;48.640;8.894;2022-07-29T03:13:39;95937.50;;;18.69;89.16
3960;BME280;1994;48.640;8.894;2022-07-29T03:16:06;95941.16;;;18.68;89.71
3960;BME280;1994;48.640;8.894;2022-07-29T03:18:32;95941.25;;;18.63;89.90
3960;BME280;1994;48.640;8.894;2022-07-29T03:20:59;95945.44;;;18.64;89.76
3960;BME280;1994;48.640;8.894;2022-07-29T03:23:25;95945.84;;;18.71;88.66
3960;BME280;1994;48.640;8.894;2022-07-29T03:25:57;95942.75;;;18.69;87.86
3960;BME280;1994;48.640;8.894;2022-07-29T03:28:23;95943.25;;;18.52;88.06
3960;BME280;1994;48.640;8.894;2022-07-29T03:30:49;95942.19;;;18.53;88.09
3960;BME280;1994;48.640;8.894;2022-07-29T03:33:16;95937.41;;;18.42;88.64
3960;BME280;1994;48.640;8.894;2022-07-29T03:35:41;95936.81;;;18.45;88.48
3960;BME280;1994;48.640;8.894;2022-07-29T03:38:07;95943.34;;;18.29;89.53
3960;BME280;1994;48.640;8.894;2022-07-29T03:43:02;95936.13;;;18.21;88.96
3960;BME280;1994;48.640;8.894;2022-07-29T03:45:32;95937.56;;;18.32;88.46
3960;BME280;1994;48.640;8.894;2022-07-29T03:48:06;95945.56;;;18.40;87.83
3960;BME280;1994;48.640;8.894;2022-07-29T03:50:33;95945.59;;;18.54;87.45
3960;BME280;1994;48.640;8.894;2022-07-29T03:53:00;95948.06;;;18.64;86.70
3960;BME280;1994;48.640;8.894;2022-07-29T03:55:30;95944.16;;;18.61;86.28
3960;BME280;1994;48.640;8.894;2022-07-29T03:57:57;95938.81;;;18.53;86.43
3960;BME280;1994;48.640;8.894;2022-07-29T04:00:24;95943.47;;;18.56;86.26
3960;BME280;1994;48.640;8.894;2022-07-29T04:02:50;95947.31;;;18.45;86.65
3960;BME280;1994;48.640;8.894;2022-07-29T04:05:17;95945.91;;;18.34;87.18
3960;BME280;1994;48.640;8.894;2022-07-29T04:07:45;95943.41;;;18.24;87.81
3960;BME280;1994;48.640;8.894;2022-07-29T04:10:11;95943.47;;;18.19;88.20
3960;BME280;1994;48.640;8.894;2022-07-29T04:12:37;95948.25;;;18.17;88.70
3960;BME280;1994;48.640;8.894;2022-07-29T04:15:04;95953.41;;;18.22;88.60
3960;BME280;1994;48.640;8.894;2022-07-29T04:17:30;95948.16;;;18.22;88.84
3960;BME280;1994;48.640;8.894;2022-07-29T04:19:55;95948.31;;;18.12;90.28
3960;BME280;1994;48.640;8.894;2022-07-29T04:22:21;95945.19;;;18.10;91.02
3960;BME280;1994;48.640;8.894;2022-07-29T04:24:47;95947.16;;;18.18;91.30
3960;BME280;1994;48.640;8.894;2022-07-29T04:27:12;95950.84;;;18.17;91.62
3960;BME280;1994;48.640;8.894;2022-07-29T04:29:38;95951.84;;;18.21;91.75
3960;BME280;1994;48.640;8.894;2022-07-29T04:32:04;95954.19;;;18.22;91.59
3960;BME280;1994;48.640;8.894;2022-07-29T04:34:31;95959.38;;;18.27;91.82
3960;BME280;1994;48.640;8.894;2022-07-29T04:36:56;95957.22;;;18.29;92.29
3960;BME280;1994;48.640;8.894;2022-07-29T04:39:25;95957.94;;;18.35;92.43
3960;BME280;1994;48.640;8.894;2022-07-29T04:41:51;95956.81;;;18.41;92.43
3960;BME280;1994;48.640;8.894;2022-07-29T04:44:17;95964.16;;;18.57;91.67
3960;BME280;1994;48.640;8.894;2022-07-29T04:46:43;95957.50;;;18.65;91.61
3960;BME280;1994;48.640;8.894;2022-07-29T04:49:08;95952.44;;;18.68;92.03
3960;BME280;1994;48.640;8.894;2022-07-29T04:51:35;95953.63;;;18.76;91.81
3960;BME280;1994;48.640;8.894;2022-07-29T04:54:01;95957.81;;;18.77;91.74
3960;BME280;1994;48.640;8.894;2022-07-29T04:56:27;95955.81;;;18.87;91.65
3960;BME280;1994;48.640;8.894;2022-07-29T04:58:53;95955.41;;;18.94;91.63
3960;BME280;1994;48.640;8.894;2022-07-29T05:01:19;95956.59;;;19.01;91.41
3960;BME280;1994;48.640;8.894;2022-07-29T05:03:45;95959.31;;;19.10;90.94
3960;BME280;1994;48.640;8.894;2022-07-29T05:06:11;95970.22;;;19.17;90.68
3960;BME280;1994;48.640;8.894;2022-07-29T05:08:37;95973.81;;;19.21;90.14
3960;BME280;1994;48.640;8.894;2022-07-29T05:11:03;95973.56;;;19.22;90.05
3960;BME280;1994;48.640;8.894;2022-07-29T05:13:29;95980.00;;;19.30;89.74
3960;BME280;1994;48.640;8.894;2022-07-29T05:15:55;95980.38;;;19.37;89.52
3960;BME280;1994;48.640;8.894;2022-07-29T05:18:38;95981.38;;;19.41;89.31
3960;BME280;1994;48.640;8.894;2022-07-29T05:21:04;95991.50;;;19.47;88.61
3960;BME280;1994;48.640;8.894;2022-07-29T05:23:30;95987.19;;;19.65;88.18
3960;BME280;1994;48.640;8.894;2022-07-29T05:25:56;95987.00;;;19.75;87.22
3960;BME280;1994;48.640;8.894;2022-07-29T05:28:22;95987.88;;;19.84;86.61
3960;BME280;1994;48.640;8.894;2022-07-29T05:30:47;95997.88;;;19.82;86.96
3960;BME280;1994;48.640;8.894;2022-07-29T05:33:14;95991.88;;;19.68;87.66
3960;BME280;1994;48.640;8.894;2022-07-29T05:35:40;95985.63;;;19.77;87.34
3960;BME280;1994;48.640;8.894;2022-07-29T05:38:06;95990.97;;;19.86;87.52
3960;BME280;1994;48.640;8.894;2022-07-29T05:40:32;95987.69;;;19.80;87.71
3960;BME280;1994;48.640;8.894;2022-07-29T05:42:58;95986.00;;;19.84;88.62
3960;BME280;1994;48.640;8.894;2022-07-29T05:45:24;95980.13;;;20.01;87.32
3960;BME280;1994;48.640;8.894;2022-07-29T05:47:49;95992.69;;;20.04;87.43
3960;BME280;1994;48.640;8.894;2022-07-29T05:50:15;95998.44;;;20.06;86.60
3960;BME280;1994;48.640;8.894;2022-07-29T05:52:41;95994.75;;;20.07;86.91
3960;BME280;1994;48.640;8.894;2022-07-29T05:55:07;95997.09;;;20.08;86.63
3960;BME280;1994;48.640;8.894;2022-07-29T05:57:33;96005.28;;;20.07;85.91
3960;BME280;1994;48.640;8.894;2022-07-29T05:59:59;96000.03;;;19.93;86.94
3960;BME280;1994;48.640;8.894;2022-07-29T06:02:25;95985.50;;;19.96;87.08
3960;BME280;1994;48.640;8.894;2022-07-29T06:04:50;96005.00;;;19.95;87.27
3960;BME280;1994;48.640;8.894;2022-07-29T06:07:19;96008.97;;;20.06;87.46
3960;BME280;1994;48.640;8.894;2022-07-29T06:09:45;96009.34;;;20.13;87.49
3960;BME280;1994;48.640;8.894;2022-07-29T06:12:11;96011.31;;;20.21;86.41
3960;BME280;1994;48.640;8.894;2022-07-29T06:14:36;96012.44;;;20.28;87.45
3960;BME280;1994;48.640;8.894;2022-07-29T06:17:06;96017.75;;;20.37;86.13
3960;BME280;1994;48.640;8.894;2022-07-29T06:19:34;96019.59;;;20.50;86.09
3960;BME280;1994;48.640;8.894;2022-07-29T06:22:02;96016.25;;;20.58;85.40
3960;BME280;1994;48.640;8.894;2022-07-29T06:24:30;96023.06;;;20.59;85.69
3960;BME280;1994;48.640;8.894;2022-07-29T06:26:56;96008.84;;;20.60;85.62
3960;BME280;1994;48.640;8.894;2022-07-29T06:29:24;96008.59;;;20.70;84.67
3960;BME280;1994;48.640;8.894;2022-07-29T06:31:53;96012.91;;;20.66;84.33
3960;BME280;1994;48.640;8.894;2022-07-29T06:34:19;96002.97;;;20.63;84.19
3960;BME280;1994;48.640;8.894;2022-07-29T06:36:44;96018.56;;;20.59;84.83
3960;BME280;1994;48.640;8.894;2022-07-29T06:39:10;96021.50;;;20.58;85.39
3960;BME280;1994;48.640;8.894;2022-07-29T06:41:36;96022.25;;;20.72;84.94
3960;BME280;1994;48.640;8.894;2022-07-29T06:44:02;96027.75;;;20.84;84.22
3960;BME280;1994;48.640;8.894;2022-07-29T06:46:28;96024.94;;;20.80;83.82
3960;BME280;1994;48.640;8.894;2022-07-29T06:48:54;96026.44;;;20.95;83.95
3960;BME280;1994;48.640;8.894;2022-07-29T06:51:21;96020.41;;;21.16;83.08
3960;BME280;1994;48.640;8.894;2022-07-29T06:53:47;96018.25;;;21.27;82.58
3960;BME280;1994;48.640;8.894;2022-07-29T06:56:15;96026.91;;;21.19;82.28
3960;BME280;1994;48.640;8.894;2022-07-29T06:58:41;96023.06;;;21.25;82.16
3960;BME280;1994;48.640;8.894;2022-07-29T07:01:06;96024.97;;;21.33;81.87
3960;BME280;1994;48.640;8.894;2022-07-29T07:03:33;96031.81;;;21.42;81.35
3960;BME280;1994;48.640;8.894;2022-07-29T07:05:59;96041.22;;;21.35;81.17
3960;BME280;1994;48.640;8.894;2022-07-29T07:08:25;96036.91;;;21.39;81.21
3960;BME280;1994;48.640;8.894;2022-07-29T07:10:51;96038.38;;;21.23;82.67
3960;BME280;1994;48.640;8.894;2022-07-29T07:13:18;96044.34;;;21.37;81.44
3960;BME280;1994;48.640;8.894;2022-07-29T07:15:48;96046.16;;;21.28;82.05
3960;BME280;1994;48.640;8.894;2022-07-29T07:18:15;96048.03;;;21.27;82.08
3960;BME280;1994;48.640;8.894;2022-07-29T07:20:41;96050.09;;;21.39;81.77
3960;BME280;1994;48.640;8.894;2022-07-29T07:23:10;96043.22;;;21.60;81.38
3960;BME280;1994;48.640;8.894;2022-07-29T07:25:36;96048.78;;;21.89;79.90
3960;BME280;1994;48.640;8.894;2022-07-29T07:28:02;96053.19;;;22.10;78.48
3960;BME280;1994;48.640;8.894;2022-07-29T07:30:31;96059.88;;;22.25;77.94
3960;BME280;1994;48.640;8.894;2022-07-29T07:32:57;96057.72;;;22.27;77.15
3960;BME280;1994;48.640;8.894;2022-07-29T07:35:22;96056.78;;;22.23;77.25
3960;BME280;1994;48.640;8.894;2022-07-29T07:37:48;96058.66;;;22.31;77.01
3960;BME280;1994;48.640;8.894;2022-07-29T07:40:16;96052.56;;;22.22;76.60
3960;BME280;1994;48.640;8.894;2022-07-29T07:42:42;96054.00;;;22.28;77.00
3960;BME280;1994;48.640;8.894;2022-07-29T07:45:09;96051.28;;;22.50;76.61
3960;BME280;1994;48.640;8.894;2022-07-29T07:47:36;96046.44;;;22.69;74.80
3960;BME280;1994;48.640;8.894;2022-07-29T07:50:05;96043.47;;;22.96;74.06
3960;BME280;1994;48.640;8.894;2022-07-29T07:52:31;96053.41;;;23.16;73.80
3960;BME280;1994;48.640;8.894;2022-07-29T07:54:57;96044.66;;;23.41;72.90
3960;BME280;1994;48.640;8.894;2022-07-29T07:57:23;96049.44;;;23.56;71.39
3960;BME280;1994;48.640;8.894;2022-07-29T07:59:49;96052.06;;;23.56;70.63
3960;BME280;1994;48.640;8.894;2022-07-29T08:02:22;96058.22;;;23.39;72.22
3960;BME280;1994;48.640;8.894;2022-07-29T08:04:48;96059.50;;;23.71;70.82
3960;BME280;1994;48.640;8.894;2022-07-29T08:07:14;96053.81;;;23.98;68.73
3960;BME280;1994;48.640;8.894;2022-07-29T08:09:49;96055.00;;;24.29;68.19
3960;BME280;1994;48.640;8.894;2022-07-29T08:12:14;96060.97;;;24.47;66.23
3960;BME280;1994;48.640;8.894;2022-07-29T08:14:40;96057.09;;;24.44;65.06
3960;BME280;1994;48.640;8.894;2022-07-29T08:17:06;96049.22;;;24.36;66.93
3960;BME280;1994;48.640;8.894;2022-07-29T08:19:32;96049.78;;;24.41;66.76
3960;BME280;1994;48.640;8.894;2022-07-29T08:21:59;96056.50;;;24.68;65.25
3960;BME280;1994;48.640;8.894;2022-07-29T08:24:25;96053.38;;;24.66;64.98
3960;BME280;1994;48.640;8.894;2022-07-29T08:27:13;96054.66;;;25.01;62.96
3960;BME280;1994;48.640;8.894;2022-07-29T08:29:39;96049.69;;;25.32;60.45
3960;BME280;1994;48.640;8.894;2022-07-29T08:32:26;96055.75;;;25.77;58.74
3960;BME280;1994;48.640;8.894;2022-07-29T08:34:53;96055.28;;;25.87;57.79
3960;BME280;1994;48.640;8.894;2022-07-29T08:37:19;96055.75;;;26.13;56.70
3960;BME280;1994;48.640;8.894;2022-07-29T08:39:45;96056.00;;;26.20;54.30
3960;BME280;1994;48.640;8.894;2022-07-29T08:42:11;96057.50;;;26.57;53.85
3960;BME280;1994;48.640;8.894;2022-07-29T08:44:37;96054.66;;;27.17;52.01
3960;BME280;1994;48.640;8.894;2022-07-29T08:47:03;96059.13;;;27.01;53.20
3960;BME280;1994;48.640;8.894;2022-07-29T08:49:30;96060.19;;;27.24;51.84
3960;BME280;1994;48.640;8.894;2022-07-29T08:52:00;96062.13;;;27.70;52.12
3960;BME280;1994;48.640;8.894;2022-07-29T08:54:30;96055.78;;;27.90;49.09
3960;BME280;1994;48.640;8.894;2022-07-29T08:56:57;96068.09;;;27.79;47.05
3960;BME280;1994;48.640;8.894;2022-07-29T08:59:26;96062.91;;;28.01;48.96
3960;BME280;1994;48.640;8.894;2022-07-29T09:01:53;96066.59;;;27.97;49.95
3960;BME280;1994;48.640;8.894;2022-07-29T09:04:22;96067.72;;;27.96;50.46
3960;BME280;1994;48.640;8.894;2022-07-29T09:06:51;96068.66;;;28.19;49.69
3960;BME280;1994;48.640;8.894;2022-07-29T09:09:20;96068.44;;;28.43;49.10
3960;BME280;1994;48.640;8.894;2022-07-29T09:11:46;96054.72;;;29.13;47.20
3960;BME280;1994;48.640;8.894;2022-07-29T09:14:13;96066.34;;;29.24;46.18
3960;BME280;1994;48.640;8.894;2022-07-29T09:16:53;96057.84;;;29.19;46.24
3960;BME280;1994;48.640;8.894;2022-07-29T09:21:54;96056.25;;;28.42;48.65
3960;BME280;1994;48.640;8.894;2022-07-29T09:24:24;96056.25;;;28.26;49.21
3960;BME280;1994;48.640;8.894;2022-07-29T09:26:50;96052.28;;;28.36;48.57
3960;BME280;1994;48.640;8.894;2022-07-29T09:29:23;96048.50;;;28.37;47.85
3960;BME280;1994;48.640;8.894;2022-07-29T09:31:52;96042.03;;;27.88;49.13
3960;BME280;1994;48.640;8.894;2022-07-29T09:34:23;96042.38;;;28.02;48.86
3960;BME280;1994;48.640;8.894;2022-07-29T09:36:51;96048.56;;;28.06;49.15
3960;BME280;1994;48.640;8.894;2022-07-29T09:41:59;96045.22;;;27.78;48.66
3960;BME280;1994;48.640;8.894;2022-07-29T09:44:26;96046.16;;;27.70;49.28
3960;BME280;1994;48.640;8.894;2022-07-29T09:47:05;96040.66;;;27.63;49.09
3960;BME280;1994;48.640;8.894;2022-07-29T09:49:55;96038.91;;;27.55;49.17
3960;BME280;1994;48.640;8.894;2022-07-29T09:52:25;96029.31;;;27.66;49.33
3960;BME280;1994;48.640;8.894;2022-07-29T09:54:51;96032.75;;;28.13;48.22
3960;BME280;1994;48.640;8.894;2022-07-29T09:57:28;96035.53;;;28.35;48.26
3960;BME280;1994;48.640;8.894;2022-07-29T10:00:06;96038.47;;;28.65;47.27
3960;BME280;1994;48.640;8.894;2022-07-29T10:02:38;96045.78;;;29.06;46.72
3960;BME280;1994;48.640;8.894;2022-07-29T10:05:16;96045.22;;;28.97;46.80
3960;BME280;1994;48.640;8.894;2022-07-29T10:07:53;96037.84;;;28.37;47.41
3960;BME280;1994;48.640;8.894;2022-07-29T10:10:28;96041.31;;;28.22;48.17
3960;BME280;1994;48.640;8.894;2022-07-29T10:13:01;96047.72;;;28.52;47.43
3960;BME280;1994;48.640;8.894;2022-07-29T10:15:30;96064.00;;;28.85;46.17
3960;BME280;1994;48.640;8.894;2022-07-29T10:18:03;96045.75;;;28.49;45.96
3960;BME280;1994;48.640;8.894;2022-07-29T10:20:28;96050.28;;;27.83;46.82
3960;BME280;1994;48.640;8.894;2022-07-29T10:22:57;96052.72;;;27.02;49.07
3960;BME280;1994;48.640;8.894;2022-07-29T10:25:24;96049.97;;;26.59;50.70
3960;BME280;1994;48.640;8.894;2022-07-29T10:27:51;96044.25;;;26.33;51.29
3960;BME280;1994;48.640;8.894;2022-07-29T10:30:19;96036.53;;;26.16;52.12
3960;BME280;1994;48.640;8.894;2022-07-29T10:33:18;96047.13;;;25.92;52.97
3960;BME280;1994;48.640;8.894;2022-07-29T10:36:02;96052.41;;;25.56;56.01
3960;BME280;1994;48.640;8.894;2022-07-29T10:44:32;96101.63;;;23.76;68.80
3960;BME280;1994;48.640;8.894;2022-07-29T10:46:58;96101.53;;;23.64;65.82
3960;BME280;1994;48.640;8.894;2022-07-29T10:49:27;96071.31;;;22.85;65.19
3960;BME280;1994;48.640;8.894;2022-07-29T10:52:03;96070.50;;;22.59;69.46
3960;BME280;1994;48.640;8.894;2022-07-29T10:54:43;96072.78;;;22.26;70.30
3960;BME280;1994;48.640;8.894;2022-07-29T10:57:26;96071.91;;;21.92;72.73
3960;BME280;1994;48.640;8.894;2022-07-29T11:02:42;96084.44;;;21.25;75.64
3960;BME280;1994;48.640;8.894;2022-07-29T11:05:15;96063.44;;;21.42;77.47
3960;BME280;1994;48.640;8.894;2022-07-29T11:10:39;96062.91;;;22.57;79.14
3960;BME280;1994;48.640;8.894;2022-07-29T11:13:05;96063.38;;;22.68;76.66
3960;BME280;1994;48.640;8.894;2022-07-29T11:15:55;96074.09;;;22.80;78.34
3960;BME280;1994;48.640;8.894;2022-07-29T11:18:21;96080.75;;;22.52;79.52
3960;BME280;1994;48.640;8.894;2022-07-29T11:20:51;96070.06;;;22.57;73.74
3960;BME280;1994;48.640;8.894;2022-07-29T11:23:30;96066.97;;;22.72;76.49
3960;BME280;1994;48.640;8.894;2022-07-29T11:26:15;96061.50;;;22.60;78.31
3960;BME280;1994;48.640;8.894;2022-07-29T11:31:45;96067.50;;;22.18;77.26
3960;BME280;1994;48.640;8.894;2022-07-29T11:39:45;96063.59;;;22.07;77.13
3960;BME280;1994;48.640;8.894;2022-07-29T11:45:27;96056.06;;;22.56;77.46
3960;BME280;1994;48.640;8.894;2022-07-29T11:48:16;96062.72;;;23.13;76.46
3960;BME280;1994;48.640;8.894;2022-07-29T11:50:42;96050.91;;;23.28;69.77
3960;BME280;1994;48.640;8.894;2022-07-29T11:53:13;96055.16;;;23.58;68.80
3960;BME280;1994;48.640;8.894;2022-07-29T11:55:40;96059.16;;;24.39;67.48
3960;BME280;1994;48.640;8.894;2022-07-29T11:58:09;96058.91;;;24.52;65.10
3960;BME280;1994;48.640;8.894;2022-07-29T12:00:40;96060.31;;;24.50;66.38
3960;BME280;1994;48.640;8.894;2022-07-29T12:03:09;96067.72;;;25.06;66.92
3960;BME280;1994;48.640;8.894;2022-07-29T12:05:43;96067.84;;;24.89;60.32
3960;BME280;1994;48.640;8.894;2022-07-29T12:08:20;96066.00;;;25.22;64.87
3960;BME280;1994;48.640;8.894;2022-07-29T12:10:49;96063.34;;;24.69;63.36
3960;BME280;1994;48.640;8.894;2022-07-29T12:13:18;96070.28;;;24.53;66.15
3960;BME280;1994;48.640;8.894;2022-07-29T12:15:56;96066.13;;;23.85;64.84
3960;BME280;1994;48.640;8.894;2022-07-29T12:18:23;96063.50;;;23.77;65.43
3960;BME280;1994;48.640;8.894;2022-07-29T12:20:57;96058.63;;;23.87;64.70
3960;BME280;1994;48.640;8.894;2022-07-29T12:23:24;96053.56;;;23.74;63.94
3960;BME280;1994;48.640;8.894;2022-07-29T12:25:49;96058.69;;;23.70;65.04
3960;BME280;1994;48.640;8.894;2022-07-29T12:28:15;96057.13;;;23.78;65.89
3960;BME280;1994;48.640;8.894;2022-07-29T12:30:47;96067.66;;;23.49;63.67
3960;BME280;1994;48.640;8.894;2022-07-29T12:33:30;96081.66;;;23.41;64.83
3960;BME280;1994;48.640;8.894;2022-07-29T12:36:01;96098.78;;;23.35;64.91
3960;BME280;1994;48.640;8.894;2022-07-29T12:38:27;96110.16;;;23.27;67.15
3960;BME280;1994;48.640;8.894;2022-07-29T12:40:54;96130.97;;;23.03;70.39
3960;BME280;1994;48.640;8.894;2022-07-29T12:43:22;96137.75;;;22.44;75.40
3960;BME280;1994;48.640;8.894;2022-07-29T12:45:54;96129.31;;;21.95;78.01
3960;BME280;1994;48.640;8.894;2022-07-29T12:48:37;96107.44;;;21.64;81.59
3960;BME280;1994;48.640;8.894;2022-07-29T12:51:05;96109.38;;;21.50;75.68
3960;BME280;1994;48.640;8.894;2022-07-29T12:53:36;96113.09;;;21.49;77.31
3960;BME280;1994;48.640;8.894;2022-07-29T12:56:03;96122.75;;;21.09;81.27
3960;BME280;1994;48.640;8.894;2022-07-29T12:58:40;96117.06;;;20.94;82.98
3960;BME280;1994;48.640;8.894;2022-07-29T13:01:16;96111.91;;;20.75;83.59
3960;BME280;1994;48.640;8.894;2022-07-29T13:03:56;96107.56;;;20.71;85.56
3960;BME280;1994;48.640;8.894;2022-07-29T13:06:32;96101.47;;;20.84;86.15
3960;BME280;1994;48.640;8.894;2022-07-29T13:11:37;96100.91;;;21.09;86.81
3960;BME280;1994;48.640;8.894;2022-07-29T13:14:05;96092.50;;;21.07;87.54
3960;BME280;1994;48.640;8.894;2022-07-29T13:16:30;96091.53;;;21.16;87.62
3960;BME280;1994;48.640;8.894;2022-07-29T13:19:11;96090.84;;;21.33;88.29
3960;BME280;1994;48.640;8.894;2022-07-29T13:21:38;96091.53;;;21.47;86.83
3960;BME280;1994;48.640;8.894;2022-07-29T13:24:10;96094.25;;;21.64;87.86
3960;BME280;1994;48.640;8.894;2022-07-29T13:26:40;96087.38;;;21.76;84.49
3960;BME280;1994;48.640;8.894;2022-07-29T13:29:06;96090.84;;;21.94;84.46
3960;BME280;1994;48.640;8.894;2022-07-29T13:31:32;96096.50;;;22.09;81.86
3960;BME280;1994;48.640;8.894;2022-07-29T13:33:58;96097.00;;;22.28;80.41
3960;BME280;1994;48.640;8.894;2022-07-29T13:36:24;96086.31;;;22.42;77.34
3960;BME280;1994;48.640;8.894;2022-07-29T13:38:49;96085.91;;;22.65;78.94
3960;BME280;1994;48.640;8.894;2022-07-29T13:41:15;96084.50;;;22.68;74.03
3960;BME280;1994;48.640;8.894;2022-07-29T13:43:41;96086.53;;;22.96;77.92
3960;BME280;1994;48.640;8.894;2022-07-29T13:46:07;96080.44;;;23.13;75.27
3960;BME280;1994;48.640;8.894;2022-07-29T13:48:32;96084.19;;;23.12;71.05
3960;BME280;1994;48.640;8.894;2022-07-29T13:50:59;96078.91;;;23.29;74.79
3960;BME280;1994;48.640;8.894;2022-07-29T13:53:24;96074.53;;;23.33;72.17
3960;BME280;1994;48.640;8.894;2022-07-29T13:55:50;96080.06;;;23.57;72.19
3960;BME280;1994;48.640;8.894;2022-07-29T13:58:16;96066.66;;;23.62;73.27
3960;BME280;1994;48.640;8.894;2022-07-29T14:00:42;96069.25;;;23.79;71.52
3960;BME280;1994;48.640;8.894;2022-07-29T14:03:10;96070.13;;;24.00;74.56
3960;BME280;1994;48.640;8.894;2022-07-29T14:05:36;96070.22;;;24.12;75.12
3960;BME280;1994;48.640;8.894;2022-07-29T14:08:02;96070.88;;;24.09;72.09
3960;BME280;1994;48.640;8.894;2022-07-29T14:10:27;96069.59;;;24.15;70.78
3960;BME280;1994;48.640;8.894;2022-07-29T14:12:53;96070.44;;;24.27;75.38
3960;BME280;1994;48.640;8.894;2022-07-29T14:15:19;96071.41;;;24.23;70.47
3960;BME280;1994;48.640;8.894;2022-07-29T14:17:45;96065.03;;;24.24;70.94
3960;BME280;1994;48.640;8.894;2022-07-29T14:20:14;96073.34;;;24.14;70.74
3960;BME280;1994;48.640;8.894;2022-07-29T14:22:41;96072.94;;;23.95;69.03
3960;BME280;1994;48.640;8.894;2022-07-29T14:25:08;96065.78;;;23.95;68.36